KBIE/BIE METAR and TAF weather

Enter ICAO airport designator
Station Type Date Time Source
KBIE METAR 2020/03/28 19:35 UTC NOAA

KBIE 281935Z AUTO 25024G31KT 10SM BKN023 BKN038 OVC090 15/09 A2937 RMK AO2 T01500091


Station Type Date Time Source
KBIE Decoded METAR 2020/03/28 19:35 UTC NOAA

Beatrice Municipal, NE, United States (KBIE) 40-18N 096-45W
Mar 28, 2020 - 03:35 PM EDT / 2020.03.28 1935 UTC
Wind: from the WSW (250 degrees) at 28 MPH (24 KT) gusting to 36 MPH (31 KT):0
Visibility: 10 mile(s):0
Sky conditions: overcast
Temperature: 59.0 F (15.0 C)
Dew Point: 48.4 F (9.1 C)
Relative Humidity: 67%
Pressure (altimeter): 29.37 in. Hg (994 hPa)
ob: KBIE 281935Z AUTO 25024G31KT 10SM BKN023 BKN038 OVC090 15/09 A2937 RMK AO2 T01500091
cycle: 19

Station Type Date Time Source
KBIE TAF UTC NOAA

Error!

Example: see airport list